createdAt,value
2019-04-20T00:01:28.114Z,16.10
2019-04-20T00:03:55.576Z,15.17
2019-04-20T00:06:27.086Z,12.27
2019-04-20T00:09:08.793Z,12.63
2019-04-20T00:11:41.635Z,13.53
2019-04-20T00:14:09.011Z,13.03
2019-04-20T00:16:35.744Z,13.47
2019-04-20T00:19:07.705Z,13.03
2019-04-20T00:21:50.669Z,13.70
2019-04-20T00:24:23.364Z,13.40
2019-04-20T00:27:26.055Z,12.13
2019-04-20T00:29:43.702Z,11.97
2019-04-20T00:32:06.014Z,14.07
2019-04-20T00:34:36.500Z,13.30
2019-04-20T00:37:05.164Z,13.17
2019-04-20T00:39:36.086Z,13.07
2019-04-20T00:42:11.123Z,11.13
2019-04-20T00:44:41.283Z,11.10
2019-04-20T00:47:25.275Z,11.03
2019-04-20T00:49:58.039Z,11.37
2019-04-20T00:52:38.933Z,12.47
2019-04-20T00:54:49.359Z,12.30
2019-04-20T00:57:30.538Z,17.57
2019-04-20T01:00:11.144Z,17.63
2019-04-20T01:02:38.356Z,18.77
2019-04-20T01:05:16.533Z,13.33
2019-04-20T01:07:39.502Z,13.47
2019-04-20T01:10:08.985Z,12.87
2019-04-20T01:12:42.044Z,13.10
2019-04-20T01:15:23.661Z,11.70
2019-04-20T01:17:46.832Z,12.10
2019-04-20T01:20:18.412Z,13.17
2019-04-20T01:22:55.950Z,13.00
2019-04-20T01:25:30.089Z,12.10
2019-04-20T01:28:14.862Z,12.57
2019-04-20T01:30:35.923Z,11.63
2019-04-20T01:33:16.333Z,11.83
2019-04-20T01:35:48.839Z,11.50
2019-04-20T01:38:21.250Z,12.03
2019-04-20T01:40:38.652Z,11.77
2019-04-20T01:43:10.047Z,11.47
2019-04-20T01:45:42.730Z,10.93
2019-04-20T01:48:14.167Z,11.10
2019-04-20T01:50:55.070Z,11.27
2019-04-20T01:53:39.153Z,11.90
2019-04-20T01:56:12.489Z,13.03
2019-04-20T01:58:50.520Z,11.00
2019-04-20T02:01:27.136Z,10.90
2019-04-20T02:04:23.798Z,10.43
2019-04-20T02:06:50.382Z,11.40
2019-04-20T02:09:22.229Z,10.17
2019-04-20T02:11:53.830Z,10.40
2019-04-20T02:14:35.145Z,11.43
2019-04-20T02:17:08.291Z,16.67
2019-04-20T02:19:44.199Z,13.87
2019-04-20T02:22:13.563Z,13.33
2019-04-20T02:24:34.026Z,11.43
2019-04-20T02:27:06.106Z,12.13
2019-04-20T02:29:58.151Z,12.23
2019-04-20T02:32:36.615Z,11.67
2019-04-20T02:35:36.208Z,11.47
2019-04-20T02:38:12.145Z,11.37
2019-04-20T02:40:47.814Z,11.70
2019-04-20T02:45:44.921Z,12.43
2019-04-20T02:48:14.099Z,12.07
2019-04-20T02:50:49.897Z,12.17
2019-04-20T02:55:57.705Z,11.83
2019-04-20T02:58:32.771Z,12.10
2019-04-20T03:00:52.334Z,12.27
2019-04-20T03:03:15.919Z,12.13
2019-04-20T03:05:45.440Z,12.10
2019-04-20T03:08:22.377Z,12.13
2019-04-20T03:11:09.001Z,11.53
2019-04-20T03:13:34.909Z,11.57
2019-04-20T03:16:09.111Z,11.83
2019-04-20T03:18:35.068Z,12.73
2019-04-20T03:21:15.047Z,13.53
2019-04-20T03:23:45.842Z,13.00
2019-04-20T03:26:17.616Z,12.20
2019-04-20T03:29:05.553Z,11.70
2019-04-20T03:32:28.506Z,11.90
2019-04-20T03:34:58.875Z,11.47
2019-04-20T03:37:15.632Z,11.47
2019-04-20T03:39:32.397Z,10.77
2019-04-20T03:41:54.913Z,11.03
2019-04-20T03:44:26.499Z,12.00
2019-04-20T03:46:59.719Z,11.57
2019-04-20T03:49:58.017Z,12.10
2019-04-20T03:52:26.188Z,11.70
2019-04-20T03:55:15.078Z,10.80
2019-04-20T03:57:54.104Z,10.87
2019-04-20T04:00:37.514Z,10.13
2019-04-20T04:03:39.173Z,11.80
2019-04-20T04:05:55.976Z,11.40
2019-04-20T04:08:26.615Z,10.80
2019-04-20T04:11:09.774Z,11.17
2019-04-20T04:13:21.280Z,10.70
2019-04-20T04:15:59.349Z,10.40
2019-04-20T04:18:31.921Z,10.47
2019-04-20T04:21:03.852Z,10.50
2019-04-20T04:23:44.451Z,10.03
2019-04-20T04:26:24.631Z,9.47
2019-04-20T04:28:47.499Z,9.60
2019-04-20T04:31:28.119Z,10.50
2019-04-20T04:33:59.395Z,10.43
2019-04-20T04:36:28.913Z,10.33
2019-04-20T04:39:22.356Z,9.70
2019-04-20T04:41:36.801Z,11.00
2019-04-20T04:44:04.780Z,9.93
2019-04-20T04:46:22.685Z,10.53
2019-04-20T04:49:03.612Z,10.07
2019-04-20T04:51:33.227Z,10.63
2019-04-20T04:54:12.729Z,9.00
2019-04-20T04:56:33.596Z,10.93
2019-04-20T04:59:04.493Z,11.00
2019-04-20T05:01:37.214Z,11.80
2019-04-20T05:04:32.103Z,11.63
2019-04-20T05:06:54.787Z,11.13
2019-04-20T05:09:15.358Z,12.57
2019-04-20T05:11:44.739Z,13.57
2019-04-20T05:14:23.583Z,13.00
2019-04-20T05:17:04.566Z,12.87
2019-04-20T05:19:46.141Z,11.73
2019-04-20T05:22:17.807Z,11.57
2019-04-20T05:24:53.727Z,12.40
2019-04-20T05:27:33.610Z,12.37
2019-04-20T05:29:44.723Z,11.80
2019-04-20T05:32:24.952Z,11.40
2019-04-20T05:35:19.696Z,11.90
2019-04-20T05:37:51.462Z,11.93
2019-04-20T05:40:16.242Z,10.80
2019-04-20T05:42:52.516Z,10.53
2019-04-20T05:45:20.581Z,10.57
2019-04-20T05:47:58.527Z,10.50
2019-04-20T05:50:34.477Z,9.37
2019-04-20T05:53:09.957Z,10.33
2019-04-20T05:55:39.095Z,9.50
2019-04-20T05:58:17.868Z,9.30
2019-04-20T06:00:55.036Z,8.83
2019-04-20T06:03:20.275Z,8.03
2019-04-20T06:05:59.356Z,8.37
2019-04-20T06:08:40.289Z,8.13
2019-04-20T06:11:01.999Z,7.87
2019-04-20T06:13:27.880Z,7.97
2019-04-20T06:16:07.442Z,8.73
2019-04-20T06:19:00.717Z,7.67
2019-04-20T06:21:37.991Z,8.67
2019-04-20T06:24:27.798Z,9.70
2019-04-20T06:26:51.918Z,8.50
2019-04-20T06:29:09.410Z,7.93
2019-04-20T06:31:46.808Z,7.70
2019-04-20T06:39:34.781Z,7.27
2019-04-20T06:44:36.840Z,7.23
2019-04-20T06:47:11.611Z,7.03
2019-04-20T06:49:38.407Z,6.40
2019-04-20T06:52:24.361Z,6.37
2019-04-20T06:55:09.917Z,7.13
2019-04-20T07:00:15.330Z,13.83
2019-04-20T07:02:55.444Z,8.70
2019-04-20T07:05:22.364Z,11.13
2019-04-20T07:08:00.791Z,12.40
2019-04-20T07:10:34.494Z,10.93
2019-04-20T07:12:56.167Z,8.93
2019-04-20T07:15:29.038Z,7.53
2019-04-20T07:18:08.117Z,7.33
2019-04-20T07:20:47.334Z,7.17
2019-04-20T07:23:24.284Z,6.77
2019-04-20T07:25:47.629Z,7.83
2019-04-20T07:28:19.632Z,8.50
2019-04-20T07:30:53.957Z,6.80
2019-04-20T07:33:24.630Z,6.37
2019-04-20T07:35:50.910Z,6.40
2019-04-20T07:40:56.082Z,6.30
2019-04-20T07:43:34.858Z,5.13
2019-04-20T07:46:04.313Z,4.53
2019-04-20T07:48:29.278Z,3.90
2019-04-20T07:50:58.249Z,4.17
2019-04-20T07:53:33.004Z,4.00
2019-04-20T07:56:13.134Z,4.30
2019-04-20T07:58:38.062Z,4.00
2019-04-20T08:01:39.088Z,4.27
2019-04-20T08:04:20.882Z,3.77
2019-04-20T08:06:38.101Z,3.37
2019-04-20T08:09:16.107Z,3.40
2019-04-20T08:12:04.675Z,3.87
2019-04-20T08:14:35.701Z,3.30
2019-04-20T08:17:14.313Z,3.23
2019-04-20T08:19:28.650Z,3.37
2019-04-20T08:22:07.709Z,3.10
2019-04-20T08:24:34.485Z,3.35
2019-04-20T08:26:55.928Z,3.92
2019-04-20T08:29:47.500Z,4.37
2019-04-20T08:32:45.196Z,4.85
2019-04-20T08:35:22.189Z,3.62
2019-04-20T08:38:13.255Z,3.92
2019-04-20T08:40:29.973Z,3.87
2019-04-20T08:43:05.468Z,3.40
2019-04-20T08:45:35.051Z,3.40
2019-04-20T08:48:02.846Z,3.55
2019-04-20T08:50:36.233Z,3.50
2019-04-20T08:53:16.061Z,4.80
2019-04-20T08:55:40.100Z,4.53
2019-04-20T08:57:54.272Z,4.08
2019-04-20T09:00:34.834Z,9.08
2019-04-20T09:03:06.937Z,5.42
2019-04-20T09:05:42.360Z,5.60
2019-04-20T09:08:13.496Z,5.25
2019-04-20T09:10:56.519Z,5.83
2019-04-20T09:13:20.086Z,5.55
2019-04-20T09:15:40.407Z,15.30
2019-04-20T09:18:22.874Z,7.53
2019-04-20T09:20:52.962Z,4.83
2019-04-20T09:23:31.454Z,4.83
2019-04-20T09:26:08.982Z,5.10
2019-04-20T09:28:36.325Z,4.17
2019-04-20T09:31:27.002Z,4.08
2019-04-20T09:34:01.546Z,4.10
2019-04-20T09:36:47.216Z,6.33
2019-04-20T09:39:21.418Z,4.15
2019-04-20T09:42:01.399Z,4.42
2019-04-20T09:44:39.829Z,3.05
2019-04-20T09:47:06.439Z,3.30
2019-04-20T09:49:49.628Z,3.25
2019-04-20T09:52:21.291Z,2.70
2019-04-20T09:54:59.390Z,2.70
2019-04-20T09:57:33.892Z,2.87
2019-04-20T10:00:01.521Z,2.22
2019-04-20T10:02:25.882Z,2.70
2019-04-20T10:04:53.497Z,2.27
2019-04-20T10:07:28.694Z,2.20
2019-04-20T10:09:57.858Z,2.40
2019-04-20T10:12:29.343Z,3.50
2019-04-20T10:15:04.191Z,2.60
2019-04-20T10:17:34.023Z,2.70
2019-04-20T10:20:10.857Z,1.65
2019-04-20T10:22:38.957Z,3.42
2019-04-20T10:25:10.800Z,1.77
2019-04-20T10:27:42.407Z,2.07
2019-04-20T10:30:14.600Z,2.03
2019-04-20T10:32:50.376Z,2.27
2019-04-20T10:35:18.828Z,2.00
2019-04-20T10:37:51.591Z,2.10
2019-04-20T10:40:37.778Z,1.97
2019-04-20T10:42:55.189Z,2.43
2019-04-20T10:45:26.913Z,2.20
2019-04-20T10:47:57.537Z,2.93
2019-04-20T10:50:29.293Z,2.30
2019-04-20T10:52:59.876Z,2.40
2019-04-20T10:55:31.441Z,2.13
2019-04-20T10:58:02.037Z,2.10
2019-04-20T11:00:44.226Z,2.17
2019-04-20T11:03:15.921Z,2.20
2019-04-20T11:05:48.791Z,1.97
2019-04-20T11:08:20.348Z,1.97
2019-04-20T11:11:04.614Z,3.40
2019-04-20T11:13:23.596Z,2.87
2019-04-20T11:15:54.676Z,2.17
2019-04-20T11:18:27.337Z,2.07
2019-04-20T11:20:59.340Z,3.80
2019-04-20T11:23:30.080Z,8.70
2019-04-20T11:26:02.138Z,3.13
2019-04-20T11:28:32.894Z,2.93
2019-04-20T11:31:04.075Z,2.60
2019-04-20T11:33:34.709Z,1.93
2019-04-20T11:36:07.041Z,2.50
2019-04-20T11:38:36.913Z,2.10
2019-04-20T11:41:16.289Z,2.80
2019-04-20T11:43:39.877Z,2.10
2019-04-20T11:46:10.459Z,1.80
2019-04-20T11:48:41.386Z,1.63
2019-04-20T11:51:12.012Z,1.80
2019-04-20T11:53:42.789Z,2.40
2019-04-20T11:56:20.360Z,2.33
2019-04-20T11:58:47.027Z,2.50
2019-04-20T12:01:22.526Z,5.87
2019-04-20T12:04:01.613Z,1.90
2019-04-20T12:06:26.620Z,2.23
2019-04-20T12:08:58.978Z,8.33
2019-04-20T12:11:39.352Z,9.03
2019-04-20T12:14:02.741Z,5.03
2019-04-20T12:16:33.591Z,4.37
2019-04-20T12:19:04.409Z,6.17
2019-04-20T12:21:34.999Z,2.70
2019-04-20T12:24:06.779Z,4.63
2019-04-20T12:26:38.657Z,7.63
2019-04-20T12:29:09.926Z,3.30
2019-04-20T12:31:44.330Z,2.73
2019-04-20T12:34:13.037Z,2.80
2019-04-20T12:36:44.807Z,2.00
2019-04-20T12:39:15.476Z,2.30
2019-04-20T12:41:52.940Z,2.50
2019-04-20T12:44:19.659Z,2.00
2019-04-20T12:46:50.343Z,3.63
2019-04-20T12:49:20.914Z,3.37
2019-04-20T12:51:59.300Z,3.20
2019-04-20T12:54:24.903Z,2.30
2019-04-20T12:56:56.304Z,2.23
2019-04-20T12:59:27.570Z,2.17
2019-04-20T13:01:59.429Z,4.47
2019-04-20T13:04:30.490Z,1.97
2019-04-20T13:07:05.914Z,2.20
2019-04-20T13:09:40.881Z,2.07
2019-04-20T13:12:13.917Z,2.30
2019-04-20T13:14:58.572Z,2.13
2019-04-20T13:17:30.477Z,3.10
2019-04-20T13:20:02.076Z,2.20
2019-04-20T13:22:32.958Z,2.93
2019-04-20T13:25:07.325Z,2.50
2019-04-20T13:27:38.909Z,1.70
2019-04-20T13:30:11.120Z,1.80
2019-04-20T13:32:43.683Z,2.37
2019-04-20T13:35:14.323Z,2.13
2019-04-20T13:37:45.697Z,1.97
2019-04-20T13:40:19.450Z,2.07
2019-04-20T13:42:51.794Z,1.93
2019-04-20T13:45:24.672Z,1.77
2019-04-20T13:47:56.975Z,1.97
2019-04-20T13:50:29.736Z,2.17
2019-04-20T13:53:01.161Z,1.90
2019-04-20T13:55:31.922Z,2.07
2019-04-20T13:58:13.905Z,2.07
2019-04-20T14:00:53.485Z,2.93
2019-04-20T14:03:25.823Z,19.43
2019-04-20T14:05:58.563Z,2.63
2019-04-20T14:08:31.498Z,2.90
2019-04-20T14:11:03.149Z,2.07
2019-04-20T14:13:38.104Z,1.90
2019-04-20T14:16:09.117Z,4.23
2019-04-20T14:18:40.949Z,2.30
2019-04-20T14:21:12.243Z,2.10
2019-04-20T14:23:43.230Z,2.13
2019-04-20T14:26:14.655Z,7.10
2019-04-20T14:28:45.333Z,3.00
2019-04-20T14:31:16.131Z,3.97
2019-04-20T14:33:48.777Z,5.07
2019-04-20T14:36:21.442Z,4.53
2019-04-20T14:38:52.035Z,40.83
2019-04-20T14:41:22.791Z,13.17
2019-04-20T14:43:53.420Z,18.27
2019-04-20T14:46:26.237Z,30.97
2019-04-20T14:48:56.674Z,9.93
2019-04-20T14:51:27.873Z,8.33
2019-04-20T14:53:59.217Z,30.20
2019-04-20T14:56:29.848Z,10.63
2019-04-20T14:59:05.239Z,16.13
2019-04-20T15:01:38.683Z,4.70
2019-04-20T15:04:14.901Z,4.83
2019-04-20T15:06:42.467Z,4.23
2019-04-20T15:09:14.710Z,4.30
2019-04-20T15:11:46.575Z,7.20
2019-04-20T15:14:18.672Z,6.20
2019-04-20T15:16:50.759Z,5.37
2019-04-20T15:19:23.491Z,3.10
2019-04-20T15:22:03.142Z,4.20
2019-04-20T15:24:33.830Z,3.67
2019-04-20T15:27:04.821Z,2.80
2019-04-20T15:29:36.053Z,3.23
2019-04-20T15:32:08.181Z,5.40
2019-04-20T15:34:39.188Z,4.17
2019-04-20T15:37:10.029Z,8.50
2019-04-20T15:39:41.560Z,7.67
2019-04-20T15:42:12.173Z,11.00
2019-04-20T15:44:43.073Z,6.07
2019-04-20T15:47:15.261Z,5.10
2019-04-20T15:49:46.213Z,3.77
2019-04-20T15:52:19.897Z,3.37
2019-04-20T15:54:49.692Z,2.60
2019-04-20T15:57:25.316Z,11.43
2019-04-20T15:59:52.848Z,5.13
2019-04-20T16:02:31.550Z,10.80
2019-04-20T16:05:04.167Z,3.20
2019-04-20T16:07:40.037Z,2.47
2019-04-20T16:10:07.562Z,4.00
2019-04-20T16:12:38.593Z,2.80
2019-04-20T16:15:09.555Z,2.63
2019-04-20T16:17:45.415Z,11.77
2019-04-20T16:20:19.323Z,11.27
2019-04-20T16:22:46.741Z,10.17
2019-04-20T16:25:31.856Z,2.70
2019-04-20T16:28:03.621Z,3.70
2019-04-20T16:30:35.741Z,2.80
2019-04-20T16:33:06.492Z,3.37
2019-04-20T16:35:38.407Z,2.60
2019-04-20T16:38:09.107Z,3.27
2019-04-20T16:40:39.705Z,8.97
2019-04-20T16:43:22.137Z,4.07
2019-04-20T16:45:43.232Z,4.57
2019-04-20T16:48:14.003Z,6.67
2019-04-20T16:50:46.779Z,7.33
2019-04-20T16:53:17.497Z,6.17
2019-04-20T16:55:48.478Z,5.17
2019-04-20T16:58:19.802Z,5.73
2019-04-20T17:00:51.760Z,7.70
2019-04-20T17:03:31.741Z,10.57
2019-04-20T17:05:56.023Z,8.70
2019-04-20T17:08:27.034Z,9.57
2019-04-20T17:10:58.133Z,12.53
2019-04-20T17:13:38.199Z,10.83
2019-04-20T17:16:01.813Z,9.13
2019-04-20T17:18:33.995Z,7.93
2019-04-20T17:21:15.558Z,8.07
2019-04-20T17:23:41.492Z,6.60
2019-04-20T17:26:12.707Z,5.87
2019-04-20T17:28:55.556Z,7.53
2019-04-20T17:31:29.340Z,7.87
2019-04-20T17:34:11.309Z,8.53
2019-04-20T17:36:36.297Z,7.90
2019-04-20T17:39:10.496Z,8.20
2019-04-20T17:41:54.552Z,8.67
2019-04-20T17:44:28.699Z,21.30
2019-04-20T17:46:58.193Z,14.17
2019-04-20T17:49:29.501Z,12.33
2019-04-20T17:52:14.274Z,15.10
2019-04-20T17:54:37.854Z,20.03
2019-04-20T17:57:11.061Z,18.40
2019-04-20T17:59:46.358Z,17.40
2019-04-20T18:02:37.322Z,14.50
2019-04-20T18:05:19.772Z,16.87
2019-04-20T18:07:44.833Z,23.40
2019-04-20T18:10:17.483Z,36.03
2019-04-20T18:12:37.454Z,30.80
2019-04-20T18:15:22.919Z,24.23
2019-04-20T18:18:13.633Z,25.10
2019-04-20T18:20:34.885Z,25.13
2019-04-20T18:23:28.117Z,21.63
2019-04-20T18:26:17.173Z,168.33
2019-04-20T18:28:51.607Z,77.90
2019-04-20T18:31:04.320Z,63.77
2019-04-20T18:33:38.363Z,69.17
2019-04-20T18:36:13.288Z,48.90
2019-04-20T18:38:49.627Z,48.00
2019-04-20T18:41:24.342Z,56.87
2019-04-20T18:43:50.779Z,35.03
2019-04-20T18:46:42.880Z,39.30
2019-04-20T18:49:09.798Z,32.77
2019-04-20T18:51:23.990Z,31.93
2019-04-20T18:53:55.677Z,28.33
2019-04-20T18:56:32.418Z,27.47
2019-04-20T18:59:01.099Z,28.00
2019-04-20T19:01:34.904Z,24.93
2019-04-20T19:04:05.649Z,26.70
2019-04-20T19:06:36.412Z,24.13
2019-04-20T19:09:09.523Z,25.80
2019-04-20T19:11:44.805Z,22.10
2019-04-20T19:14:32.537Z,20.70
2019-04-20T19:17:09.024Z,17.00
2019-04-20T19:19:39.387Z,15.60
2019-04-20T19:22:04.326Z,14.23
2019-04-20T19:24:37.869Z,15.00
2019-04-20T19:27:14.978Z,17.57
2019-04-20T19:29:54.645Z,17.03
2019-04-20T19:32:30.365Z,18.77
2019-04-20T19:34:59.330Z,20.83
2019-04-20T19:37:28.658Z,21.70
2019-04-20T19:40:05.596Z,20.67
2019-04-20T19:42:39.171Z,18.77
2019-04-20T19:45:29.093Z,22.73
2019-04-20T19:47:48.267Z,21.67
2019-04-20T19:50:35.620Z,15.97
2019-04-20T19:53:05.681Z,29.13
2019-04-20T19:55:29.842Z,32.83
2019-04-20T19:58:02.640Z,24.60
2019-04-20T20:00:22.835Z,19.63
2019-04-20T20:02:54.334Z,18.30
2019-04-20T20:05:36.247Z,17.27
2019-04-20T20:08:05.501Z,17.13
2019-04-20T20:10:37.709Z,17.93
2019-04-20T20:13:08.243Z,16.10
2019-04-20T20:15:41.794Z,15.13
2019-04-20T20:18:30.658Z,13.27
2019-04-20T20:20:59.575Z,13.57
2019-04-20T20:23:18.714Z,13.33
2019-04-20T20:25:50.117Z,13.83
2019-04-20T20:28:31.033Z,15.93
2019-04-20T20:31:05.051Z,16.23
2019-04-20T20:33:45.403Z,16.47
2019-04-20T20:36:05.679Z,14.27
2019-04-20T20:38:42.573Z,16.20
2019-04-20T20:41:15.197Z,16.60
2019-04-20T20:43:48.919Z,16.83
2019-04-20T20:46:23.953Z,15.47
2019-04-20T20:49:06.206Z,15.47
2019-04-20T20:51:39.228Z,16.07
2019-04-20T20:53:57.898Z,14.63
2019-04-20T20:56:27.411Z,11.80
2019-04-20T20:59:06.385Z,12.23
2019-04-20T21:01:37.798Z,11.87
2019-04-20T21:03:58.663Z,11.60
2019-04-20T21:06:30.594Z,11.20
2019-04-20T21:09:02.954Z,9.27
2019-04-20T21:11:36.347Z,10.33
2019-04-20T21:14:07.301Z,8.87
2019-04-20T21:16:47.005Z,8.30
2019-04-20T21:19:24.559Z,8.77
2019-04-20T21:21:50.450Z,8.23
2019-04-20T21:24:23.694Z,10.67
2019-04-20T21:26:55.986Z,7.47
2019-04-20T21:29:35.335Z,7.70
2019-04-20T21:32:05.097Z,7.27
2019-04-20T21:34:33.058Z,8.07
2019-04-20T21:37:10.672Z,8.03
2019-04-20T21:39:44.735Z,7.40
2019-04-20T21:42:15.847Z,6.90
2019-04-20T21:44:45.363Z,7.50
2019-04-20T21:47:22.377Z,7.10
2019-04-20T21:49:57.769Z,8.20
2019-04-20T21:52:26.931Z,6.73
2019-04-20T21:54:52.182Z,6.53
2019-04-20T21:57:24.086Z,6.80
2019-04-20T22:00:06.041Z,7.47
2019-04-20T22:02:33.850Z,7.70
2019-04-20T22:05:01.268Z,7.67
2019-04-20T22:07:34.295Z,8.50
2019-04-20T22:10:13.982Z,8.77
2019-04-20T22:12:47.573Z,9.17
2019-04-20T22:15:19.852Z,9.00
2019-04-20T22:17:46.437Z,9.10
2019-04-20T22:20:26.736Z,9.40
2019-04-20T22:23:03.001Z,9.23
2019-04-20T22:25:37.333Z,8.97
2019-04-20T22:27:56.980Z,10.57
2019-04-20T22:30:26.501Z,9.83
2019-04-20T22:33:00.845Z,8.37
2019-04-20T22:35:31.373Z,9.30
2019-04-20T22:38:20.473Z,8.60
2019-04-20T22:40:52.470Z,8.63
2019-04-20T22:43:27.317Z,8.20
2019-04-20T22:45:57.212Z,7.43
2019-04-20T22:48:29.089Z,7.97
2019-04-20T22:51:22.364Z,7.67
2019-04-20T22:53:44.721Z,7.70
2019-04-20T22:56:25.210Z,8.47
2019-04-20T22:58:48.817Z,7.80
2019-04-20T23:01:23.273Z,8.57
2019-04-20T23:03:42.999Z,8.63
2019-04-20T23:06:14.586Z,10.73
2019-04-20T23:08:47.318Z,8.90
2019-04-20T23:11:23.608Z,9.13
2019-04-20T23:13:52.042Z,8.47
2019-04-20T23:16:22.970Z,8.50
2019-04-20T23:18:54.142Z,8.17
2019-04-20T23:21:25.865Z,8.27
2019-04-20T23:24:02.250Z,9.30
2019-04-20T23:26:33.528Z,8.93
2019-04-20T23:29:02.662Z,8.97
2019-04-20T23:31:34.544Z,8.40
2019-04-20T23:34:12.831Z,9.17
2019-04-20T23:36:42.321Z,7.93
2019-04-20T23:39:13.037Z,9.00
2019-04-20T23:41:53.771Z,9.70
2019-04-20T23:44:18.953Z,9.97
2019-04-20T23:47:02.076Z,8.53
2019-04-20T23:49:34.129Z,8.03
2019-04-20T23:52:27.653Z,7.27
2019-04-20T23:54:37.198Z,7.27
2019-04-20T23:57:07.992Z,6.97
2019-04-20T23:59:42.834Z,7.37
